Aérodrome :
LOGIN :

S'inscrire | Disclaimer

   EN    FR    IT 

 










Légende :    VFR   VFR Marginal   IFR   IFR Intensif   IFR Très Intensif
Visi : 
Plafond : 
>= 8 km
>= 3000ft
5 à 8 km
1000 à 3000 ft
1500m à 5 km
500 à 1000 ft
800 à 1500m
200 à 500 ft
< 800m
< 200 ft
Symboles :   Orages  Brouillard  Fortes neiges  Fortes précipitations  Vent > 20 kt
SIGMETs :   Divers  Orages  Givrage  Turbulence  Onde Orograph.  Cendres Volcan.







- Altitude de l'aérodrome : 863 ft
- Code IATA : ZAZ


LEZG - Zaragoza Aragon

DERNIER METAR :
  • 221430Z 31010KT 9999 -RA SCT035 OVC045 07/04 Q1011

METARs EXPIRÉS :
  • 221400Z 32008KT 9999 -RA BKN035 OVC045 07/03 Q1012
  • 221330Z 33005KT 280V360 9999 -RA SCT040 BKN050 08/03 Q1012
  • 221300Z 32005KT 290V350 9999 FEW040 BKN055 08/01 Q1012
  • 221230Z 31005KT 260V340 9999 -RA FEW040 BKN045 08/01 Q1013
  • 221200Z 28005KT 9999 FEW040 BKN050 08/01 Q1013

TAF TAF LEZG
Valide du 22 à 12h jusqu'au 23 à 12h UTC


221100Z 2212/2312 27012KT 9999 SCT040 TX09/2214Z TN04/2307Z
PROB40
TEMPO 2212/2224 4000 RA BKN040
PROB40
TEMPO 2306/2312 4000 RA BKN040
BECMG 2306/2308 30020KT
TEMPO 2306/2312 31025G35KT
Pas de NOTAMs connus pour ce terrain.
1 SIGMET publié pour la FIR Madrid (LECM) :
 
Onde orographique forte
LECM SIGMET 3 VALID 221300/221700 LEVA
LECM MADRID FIR/UIR SEV MTW FCST N OF LINE N4240 W001 - N4230 E00010 FL060/360 STNR NC=



MET'MAP, la Météo Aéronautique d'un coup d'oeil ! - Copyright ORBIFLY Décembre 2007 - Disclaimer

ORBIFLY MET'MAP TEAM :

Programmation & Développement : Alexandra Zaïnal
Conception & Développement : Baudouin d'Aumeries
Co-Programmation & Développement : Marc-Olivier Méhu
Soutien technique & logistique : Manuel Goepfert

Contact : metmap@orbifly.com




SOURCES & CREDITS :

   NOAA